CYBC

Baie Comeau Airport

Baie-Comeau, Quebec, Canada

CYBC 221400Z AUTO VRB03KT 9SM SCT060 BKN094 15/11 A3017 RMK SLP218

Observed Flight Rules
Sep-22 @ 14:00 UTC (an hour ago)
 
Visual Flight Rules
Wind Visibility Clouds
Variable at 3 knots 9 miles
  • Scattered at 6,000' AGL
  • Broken at 9,400' AGL
Temperatures Readings
Current 15°C / 59°F
Dewpoint 11°C / 52°F
Humidity 77%
Altimeter 30.17" Hg
Pressure 1021.8 hPa
Elevation 22
Observed Flight Rules
Sep-22 @ 14:00 UTC
(an hour ago)
 
VFR
Wind Visibility
Variable at 3 knots 9 miles
Clouds
  • Scattered at 6,000' AGL
  • Broken at 9,400' AGL
Temperature Dewpoint
15°C / 59°F 11°C / 52°F
Humidity Altimeter Pressure
77% 30.17" Hg 1021.8 hPa